Time;durP1;ratioP1;P1;durP2;ratioP2;P2;SDS_P1;SDS_P2;PMS_P1;PMS_P2;Temp;Humidity;BMP_temperature;BMP_pressure;BME280_temperature;BME280_humidity;BME280_pressure;Samples;Min_cycle;Max_cycle;Signal;HPM_P1;HPM_P2
2024/03/06 05:05:24;;;;;;;0.60;0.60;;;6.80;99.90;;;;;;5945078;23;21316;-60
2024/03/06 05:07:50;;;;;;;0.40;0.40;;;6.80;99.90;;;;;;4879528;29;20310;-59
2024/03/06 05:10:16;;;;;;;0.30;0.30;;;6.80;99.90;;;;;;4881425;29;20324;-60
2024/03/06 05:12:42;;;;;;;0.40;0.40;;;6.80;99.90;;;;;;4881629;29;20179;-60
2024/03/06 05:15:08;;;;;;;0.40;0.40;;;6.80;99.90;;;;;;4881130;29;20183;-59
2024/03/06 05:17:34;;;;;;;0.30;0.30;;;6.80;99.90;;;;;;4880866;29;20467;-60
2024/03/06 05:20:00;;;;;;;0.93;0.93;;;6.70;99.90;;;;;;4880481;29;20925;-61
2024/03/06 05:22:26;;;;;;;0.30;0.30;;;6.80;99.90;;;;;;4880667;29;20180;-60
2024/03/06 05:24:52;;;;;;;0.32;0.32;;;6.70;99.90;;;;;;4880509;29;20910;-60
2024/03/06 05:27:18;;;;;;;0.40;0.40;;;6.70;99.90;;;;;;4880989;29;20244;-60
2024/03/06 05:29:44;;;;;;;0.30;0.30;;;6.70;99.90;;;;;;4881049;29;20183;-60
2024/03/06 05:32:10;;;;;;;0.30;0.30;;;6.70;99.90;;;;;;4880995;29;20227;-60
2024/03/06 05:34:35;;;;;;;0.30;0.30;;;6.80;99.90;;;;;;4880747;29;20918;-60
2024/03/06 05:37:03;;;;;;;0.30;0.30;;;6.70;99.90;;;;;;4862948;29;20228;-60
2024/03/06 05:39:30;;;;;;;0.47;0.47;;;6.70;99.90;;;;;;4864106;29;20416;-61
2024/03/06 05:41:59;;;;;;;0.30;0.30;;;6.70;99.90;;;;;;4881034;29;20167;-59
2024/03/06 05:44:25;;;;;;;0.30;0.30;;;6.70;99.90;;;;;;4880801;29;20262;-60
2024/03/06 05:46:50;;;;;;;0.37;0.37;;;6.70;99.90;;;;;;4863894;29;20230;-60
2024/03/06 05:49:16;;;;;;;0.30;0.30;;;6.70;99.90;;;;;;4880757;29;20183;-60
2024/03/06 05:51:41;;;;;;;0.40;0.40;;;6.70;99.90;;;;;;4880589;29;20206;-60
2024/03/06 05:54:10;;;;;;;0.30;0.30;;;6.70;99.90;;;;;;4880722;29;20191;-60
2024/03/06 05:56:35;;;;;;;0.40;0.40;;;6.70;99.90;;;;;;4880310;29;20565;-60
2024/03/06 05:59:04;;;;;;;0.30;0.30;;;6.70;99.90;;;;;;4880555;29;20206;-58
2024/03/06 06:01:30;;;;;;;0.30;0.30;;;6.70;99.90;;;;;;4880612;29;20251;-60
2024/03/06 06:03:56;;;;;;;1.05;1.05;;;6.60;99.90;;;;;;4880230;29;20183;-60
2024/03/06 06:06:22;;;;;;;0.30;0.30;;;6.60;99.90;;;;;;4880007;29;20192;-60
2024/03/06 06:08:48;;;;;;;0.38;0.38;;;6.60;99.90;;;;;;4880290;29;20210;-60
2024/03/06 06:11:14;;;;;;;0.40;0.40;;;6.70;99.90;;;;;;4863565;29;20559;-60
2024/03/06 06:13:39;;;;;;;0.30;0.30;;;6.60;99.90;;;;;;4879893;29;20980;-60
2024/03/06 06:16:06;;;;;;;0.33;0.33;;;6.60;99.90;;;;;;4879527;29;20512;-59
2024/03/06 06:18:31;;;;;;;0.38;0.38;;;6.60;99.90;;;;;;4860970;29;20203;-60
2024/03/06 06:20:58;;;;;;;1.40;1.37;;;6.60;99.90;;;;;;4879485;29;20175;-59
2024/03/06 06:23:23;;;;;;;0.38;0.38;;;6.70;99.90;;;;;;4879302;29;20190;-60
2024/03/06 06:25:49;;;;;;;0.30;0.30;;;6.70;99.90;;;;;;4861377;29;20682;-59
2024/03/06 06:28:14;;;;;;;0.30;0.30;;;6.70;99.90;;;;;;4863053;29;20184;-58
2024/03/06 06:30:40;;;;;;;0.40;0.40;;;6.70;99.90;;;;;;4865328;29;20185;-59
2024/03/06 06:33:06;;;;;;;0.30;0.30;;;6.60;99.90;;;;;;4879840;29;20179;-58
2024/03/06 06:35:32;;;;;;;0.30;0.30;;;6.60;99.90;;;;;;4879584;29;20194;-59
2024/03/06 06:37:58;;;;;;;0.60;0.60;;;6.70;99.90;;;;;;4879965;29;20494;-60
2024/03/06 06:40:23;;;;;;;0.30;0.30;;;6.70;99.90;;;;;;4879903;29;20193;-60
2024/03/06 06:42:49;;;;;;;0.30;0.30;;;6.70;99.90;;;;;;4875349;29;20180;-62
2024/03/06 06:45:19;;;;;;;0.40;0.40;;;6.70;99.90;;;;;;4860834;29;20670;-63
2024/03/06 06:47:45;;;;;;;0.30;0.30;;;6.70;99.90;;;;;;4864005;29;20172;-62
2024/03/06 06:50:11;;;;;;;0.40;0.40;;;6.70;99.90;;;;;;4894998;29;20220;-61
2024/03/06 06:52:38;;;;;;;0.30;0.30;;;6.70;99.90;;;;;;4898173;29;20210;-61
2024/03/06 06:55:04;;;;;;;0.30;0.30;;;6.70;99.90;;;;;;4897950;29;20473;-60
2024/03/06 06:57:30;;;;;;;0.30;0.30;;;6.70;99.90;;;;;;4869556;29;20207;-59
2024/03/06 06:59:55;;;;;;;0.30;0.30;;;6.70;99.90;;;;;;4874405;29;20586;-59
2024/03/06 07:02:21;;;;;;;0.30;0.30;;;6.70;99.90;;;;;;4861800;29;20316;-60
2024/03/06 07:04:48;;;;;;;0.30;0.30;;;6.70;99.90;;;;;;4860832;29;20188;-59
2024/03/06 07:07:14;;;;;;;0.40;0.40;;;6.80;99.90;;;;;;4860628;29;20219;-59
2024/03/06 07:09:40;;;;;;;0.30;0.30;;;6.90;99.90;;;;;;4860890;29;20238;-59
2024/03/06 07:12:07;;;;;;;0.43;0.43;;;6.90;99.90;;;;;;4860965;29;20180;-59
2024/03/06 07:14:33;;;;;;;0.30;0.30;;;7.00;99.90;;;;;;4861049;29;20267;-59
2024/03/06 07:16:58;;;;;;;0.60;0.50;;;7.00;99.90;;;;;;4869993;29;20291;-62
2024/03/06 07:19:24;;;;;;;0.40;0.40;;;6.90;99.90;;;;;;4876817;29;20297;-60
2024/03/06 07:21:50;;;;;;;0.30;0.30;;;7.00;99.90;;;;;;4892617;29;20258;-61
2024/03/06 07:24:15;;;;;;;0.30;0.30;;;6.90;99.90;;;;;;4865782;29;20176;-60
2024/03/06 07:26:42;;;;;;;0.60;0.60;;;7.00;99.90;;;;;;4883083;29;20729;-61
2024/03/06 07:29:14;;;;;;;0.30;0.30;;;7.10;99.90;;;;;;4867349;29;20562;-61
2024/03/06 07:31:40;;;;;;;0.40;0.40;;;7.10;99.90;;;;;;4868447;29;20179;-61
2024/03/06 07:34:10;;;;;;;0.30;0.30;;;7.20;99.90;;;;;;4872431;29;20191;-60
2024/03/06 07:36:36;;;;;;;0.30;0.30;;;7.20;99.90;;;;;;4878840;29;20203;-62
2024/03/06 07:39:03;;;;;;;0.30;0.30;;;7.20;99.90;;;;;;4879748;29;20210;-61
2024/03/06 07:41:28;;;;;;;0.30;0.30;;;7.20;99.90;;;;;;4880127;29;20185;-62
2024/03/06 07:43:54;;;;;;;0.40;0.40;;;7.30;99.90;;;;;;4881746;29;20584;-62
2024/03/06 07:46:20;;;;;;;0.30;0.30;;;7.30;99.90;;;;;;4889843;29;20686;-62
2024/03/06 07:48:45;;;;;;;0.30;0.30;;;7.30;99.90;;;;;;4905446;29;20178;-61
2024/03/06 07:51:11;;;;;;;0.30;0.30;;;7.30;99.90;;;;;;4896688;29;20205;-61
2024/03/06 07:53:37;;;;;;;0.40;0.40;;;7.30;99.90;;;;;;4884097;29;20183;-62
2024/03/06 07:56:03;;;;;;;0.60;0.60;;;7.40;99.90;;;;;;4886485;29;20191;-62
2024/03/06 07:58:29;;;;;;;0.40;0.40;;;7.50;99.90;;;;;;4887408;29;20455;-62
2024/03/06 08:00:56;;;;;;;0.30;0.30;;;7.60;99.90;;;;;;4888840;29;20248;-62
2024/03/06 08:03:22;;;;;;;0.30;0.30;;;7.60;99.90;;;;;;4896592;29;20186;-60
2024/03/06 08:05:52;;;;;;;0.35;0.35;;;7.60;99.90;;;;;;4897389;29;20688;-61
2024/03/06 08:08:18;;;;;;;0.30;0.30;;;7.70;99.90;;;;;;4901437;29;20214;-60
2024/03/06 08:10:45;;;;;;;0.30;0.30;;;7.80;99.90;;;;;;4901602;29;20525;-60
2024/03/06 08:13:10;;;;;;;0.38;0.38;;;7.80;99.90;;;;;;4901880;29;20175;-61
2024/03/06 08:15:36;;;;;;;0.40;0.40;;;7.80;99.90;;;;;;4897878;29;20210;-61
2024/03/06 08:18:03;;;;;;;0.30;0.30;;;7.80;99.90;;;;;;4893817;29;20484;-63
2024/03/06 08:20:29;;;;;;;0.30;0.30;;;7.80;99.90;;;;;;4902401;29;20179;-60
2024/03/06 08:22:56;;;;;;;0.30;0.30;;;7.70;99.90;;;;;;4902205;29;20216;-62
2024/03/06 08:25:22;;;;;;;0.30;0.30;;;7.70;99.90;;;;;;4903459;29;20258;-59
2024/03/06 08:27:48;;;;;;;0.70;0.70;;;7.70;99.90;;;;;;4901769;29;20202;-61
2024/03/06 08:30:14;;;;;;;0.30;0.30;;;7.70;99.90;;;;;;4902211;29;20561;-63
2024/03/06 08:32:40;;;;;;;0.30;0.30;;;7.60;99.90;;;;;;4886325;29;20265;-60
2024/03/06 08:35:11;;;;;;;0.37;0.37;;;7.50;99.90;;;;;;4884257;29;20275;-62
2024/03/06 08:37:40;;;;;;;0.40;0.40;;;7.50;99.90;;;;;;4900811;29;20221;-60
2024/03/06 08:40:17;;;;;;;0.40;0.40;;;7.50;99.90;;;;;;4863562;29;20183;-62
2024/03/06 08:42:48;;;;;;;0.30;0.30;;;7.50;99.90;;;;;;4875681;29;20609;-62
2024/03/06 08:45:14;;;;;;;0.30;0.30;;;7.60;99.90;;;;;;4900581;29;20170;-60
2024/03/06 08:47:41;;;;;;;0.30;0.25;;;7.50;99.90;;;;;;4900298;29;20194;-61
2024/03/06 08:50:09;;;;;;;0.50;0.50;;;7.50;99.90;;;;;;4899506;29;20560;-62
2024/03/06 08:52:35;;;;;;;0.30;0.30;;;7.50;99.90;;;;;;4899847;29;20183;-62
2024/03/06 08:55:04;;;;;;;0.30;0.30;;;7.50;99.90;;;;;;4899620;29;20170;-60
2024/03/06 08:57:31;;;;;;;0.35;0.35;;;7.60;99.90;;;;;;4899756;29;20194;-63
2024/03/06 08:59:57;;;;;;;0.30;0.30;;;7.60;99.90;;;;;;4900283;29;20609;-62
2024/03/06 09:02:22;;;;;;;0.32;0.32;;;7.60;99.90;;;;;;4899962;29;20199;-62
2024/03/06 09:04:48;;;;;;;0.30;0.30;;;7.60;99.90;;;;;;4899792;29;20207;-61
2024/03/06 09:07:14;;;;;;;0.30;0.30;;;7.60;99.90;;;;;;4899294;29;20202;-61
2024/03/06 09:09:41;;;;;;;0.30;0.30;;;7.60;99.90;;;;;;4883025;29;20662;-61
2024/03/06 09:12:10;;;;;;;0.30;0.30;;;7.60;99.90;;;;;;4899668;29;20404;-61
2024/03/06 09:14:36;;;;;;;0.30;0.30;;;7.60;99.90;;;;;;4899530;29;20545;-61
2024/03/06 09:17:02;;;;;;;0.30;0.30;;;7.60;99.90;;;;;;4899047;29;20191;-61
2024/03/06 09:19:28;;;;;;;0.30;0.30;;;7.70;99.90;;;;;;4899632;29;20213;-61
2024/03/06 09:21:54;;;;;;;0.30;0.30;;;7.70;99.90;;;;;;4898842;29;20410;-62
2024/03/06 09:24:22;;;;;;;0.30;0.30;;;7.70;99.90;;;;;;4898339;29;20234;-63
2024/03/06 09:26:49;;;;;;;0.32;0.32;;;7.80;99.90;;;;;;4898486;29;20699;-62
2024/03/06 09:29:15;;;;;;;0.30;0.30;;;7.80;99.90;;;;;;4899001;29;20649;-62
2024/03/06 09:31:42;;;;;;;0.30;0.30;;;7.80;99.90;;;;;;4899365;29;20186;-61
2024/03/06 09:34:11;;;;;;;0.30;0.30;;;7.90;99.90;;;;;;4899043;29;20183;-60
2024/03/06 09:36:37;;;;;;;0.30;0.30;;;7.90;99.90;;;;;;4898842;29;20219;-61
2024/03/06 09:39:04;;;;;;;0.30;0.30;;;7.90;99.90;;;;;;4893906;29;20607;-62
2024/03/06 09:41:30;;;;;;;0.30;0.30;;;7.90;99.90;;;;;;4889303;29;20176;-62
2024/03/06 09:43:56;;;;;;;0.30;0.30;;;8.00;99.90;;;;;;4894575;29;20197;-60
2024/03/06 09:46:22;;;;;;;0.40;0.40;;;7.90;99.90;;;;;;4881688;29;20988;-62
2024/03/06 09:48:51;;;;;;;0.50;0.50;;;7.90;99.90;;;;;;4898619;29;20189;-61
2024/03/06 09:51:17;;;;;;;0.30;0.30;;;8.00;99.90;;;;;;4894633;29;20192;-62
2024/03/06 09:53:45;;;;;;;0.83;0.80;;;8.00;99.90;;;;;;4874478;29;20254;-59
2024/03/06 09:56:11;;;;;;;0.30;0.30;;;7.90;99.90;;;;;;4864479;29;20200;-59
2024/03/06 09:58:37;;;;;;;0.40;0.40;;;7.90;99.90;;;;;;4872146;29;20222;-60
2024/03/06 10:01:04;;;;;;;0.50;0.50;;;7.90;99.90;;;;;;4866081;29;20635;-61
2024/03/06 10:03:30;;;;;;;0.30;0.30;;;7.80;99.90;;;;;;4894627;29;20553;-61
2024/03/06 10:05:55;;;;;;;0.30;0.30;;;7.80;99.90;;;;;;4881662;29;20277;-60
2024/03/06 10:08:22;;;;;;;0.73;0.70;;;7.80;99.90;;;;;;4890192;29;20709;-60
2024/03/06 10:10:50;;;;;;;0.40;0.40;;;7.80;99.90;;;;;;4898737;29;20634;-60
2024/03/06 10:13:17;;;;;;;0.30;0.30;;;7.80;99.90;;;;;;4881502;29;20194;-62
2024/03/06 10:15:56;;;;;;;0.50;0.50;;;7.80;99.90;;;;;;4898251;29;20677;-60
2024/03/06 10:18:22;;;;;;;0.60;0.60;;;7.80;99.90;;;;;;4898149;29;20206;-59
2024/03/06 10:20:47;;;;;;;0.33;0.33;;;7.80;99.90;;;;;;4883855;29;20239;-60
2024/03/06 10:23:14;;;;;;;0.30;0.30;;;7.80;99.90;;;;;;4887528;29;20504;-59
2024/03/06 10:25:43;;;;;;;0.30;0.30;;;7.80;99.90;;;;;;4874924;29;20268;-59
2024/03/06 10:28:10;;;;;;;0.60;0.60;;;7.70;99.90;;;;;;4861214;29;20176;-59
2024/03/06 10:30:45;;;;;;;0.40;0.40;;;7.80;99.90;;;;;;4874678;29;20230;-60
2024/03/06 10:33:12;;;;;;;0.30;0.30;;;7.80;99.90;;;;;;4886990;29;20182;-60
2024/03/06 10:35:40;;;;;;;0.43;0.43;;;7.80;99.90;;;;;;4880210;29;20211;-60
2024/03/06 10:38:07;;;;;;;0.30;0.30;;;7.70;99.90;;;;;;4876714;29;20319;-59
2024/03/06 10:40:37;;;;;;;0.40;0.40;;;7.80;99.90;;;;;;4876491;29;20578;-61
2024/03/06 10:43:07;;;;;;;0.60;0.60;;;7.80;99.90;;;;;;4857934;29;20221;-61
2024/03/06 10:46:01;;;;;;;0.30;0.30;;;7.80;99.90;;;;;;4892419;29;20271;-61
2024/03/06 10:48:28;;;;;;;0.30;0.30;;;7.90;99.90;;;;;;4888941;29;20205;-61
2024/03/06 10:50:55;;;;;;;0.30;0.30;;;8.00;99.90;;;;;;4898601;29;20216;-59
2024/03/06 10:53:23;;;;;;;0.30;0.30;;;8.00;99.90;;;;;;4897703;29;20191;-60
2024/03/06 10:55:49;;;;;;;0.40;0.40;;;8.10;99.90;;;;;;4897920;29;20198;-61
2024/03/06 10:58:16;;;;;;;0.40;0.40;;;8.20;99.90;;;;;;4888414;29;20199;-60
2024/03/06 11:00:46;;;;;;;0.30;0.30;;;8.10;99.90;;;;;;4879053;29;20627;-60
2024/03/06 11:03:12;;;;;;;0.30;0.30;;;8.20;99.90;;;;;;4878050;29;20206;-65
2024/03/06 11:05:39;;;;;;;0.85;0.85;;;8.20;99.90;;;;;;4877146;29;20199;-62
2024/03/06 11:08:16;;;;;;;0.40;0.40;;;8.10;99.90;;;;;;4855842;29;20284;-62
2024/03/06 11:10:43;;;;;;;0.30;0.30;;;8.20;99.90;;;;;;4873326;29;20190;-63
2024/03/06 11:13:30;;;;;;;0.50;0.50;;;8.20;99.90;;;;;;4865919;29;20171;-61
2024/03/06 11:16:01;;;;;;;0.30;0.30;;;8.20;99.90;;;;;;4871978;29;20232;-61
2024/03/06 11:18:30;;;;;;;0.40;0.40;;;8.20;99.90;;;;;;4878956;29;20195;-63
2024/03/06 11:21:01;;;;;;;0.35;0.35;;;8.30;99.90;;;;;;4865134;29;20184;-61
2024/03/06 11:23:27;;;;;;;0.30;0.30;;;8.30;99.90;;;;;;4878319;29;20186;-62
2024/03/06 11:25:55;;;;;;;0.30;0.30;;;8.40;99.90;;;;;;4866109;29;20662;-63
2024/03/06 11:28:23;;;;;;;0.38;0.38;;;8.40;99.90;;;;;;4879995;29;20266;-63
2024/03/06 11:31:04;;;;;;;0.38;0.38;;;8.40;99.90;;;;;;4879478;29;20654;-61
2024/03/06 11:33:41;;;;;;;0.38;0.38;;;8.40;99.90;;;;;;4875115;29;20184;-62
2024/03/06 11:36:30;;;;;;;0.40;0.40;;;8.40;99.90;;;;;;4860885;29;20339;-62
2024/03/06 11:39:08;;;;;;;0.30;0.30;;;8.40;99.90;;;;;;4867674;29;20301;-62
2024/03/06 11:41:49;;;;;;;0.90;0.85;;;8.40;99.90;;;;;;4878270;29;20542;-63
2024/03/06 11:44:23;;;;;;;0.35;0.35;;;8.40;99.90;;;;;;4878529;29;20183;-62
2024/03/06 11:46:50;;;;;;;0.40;0.40;;;8.50;99.90;;;;;;4876998;29;20207;-62
2024/03/06 11:49:24;;;;;;;0.45;0.45;;;8.50;99.90;;;;;;4893300;29;20183;-63
2024/03/06 11:51:54;;;;;;;0.30;0.30;;;8.60;99.90;;;;;;4876165;29;20191;-63
2024/03/06 11:54:29;;;;;;;0.30;0.30;;;8.60;99.90;;;;;;4871176;29;20241;-63
2024/03/06 11:57:02;;;;;;;0.65;0.63;;;8.70;99.90;;;;;;4875484;29;20207;-63
2024/03/06 11:59:29;;;;;;;0.40;0.40;;;8.70;99.90;;;;;;4878490;29;20240;-63
2024/03/06 12:01:56;;;;;;;0.30;0.30;;;8.80;99.90;;;;;;4877168;29;20192;-64
2024/03/06 12:04:24;;;;;;;0.30;0.30;;;8.90;99.90;;;;;;4876886;29;20214;-64
2024/03/06 12:06:50;;;;;;;0.43;0.43;;;8.90;99.90;;;;;;4878290;29;20194;-62
2024/03/06 12:09:16;;;;;;;0.30;0.30;;;9.00;99.90;;;;;;4890604;29;20228;-63
2024/03/06 12:11:45;;;;;;;0.30;0.30;;;9.00;99.90;;;;;;4897252;29;20187;-63
2024/03/06 12:14:18;;;;;;;0.47;0.47;;;8.90;99.90;;;;;;4865831;29;20194;-63
2024/03/06 12:17:07;;;;;;;0.30;0.30;;;9.00;99.90;;;;;;4881190;29;20849;-63
2024/03/06 12:19:36;;;;;;;0.30;0.30;;;8.90;99.90;;;;;;4894258;29;20207;-63
2024/03/06 12:22:04;;;;;;;0.43;0.43;;;8.90;99.90;;;;;;4880299;29;20180;-62
2024/03/06 12:24:30;;;;;;;0.30;0.30;;;8.80;99.90;;;;;;4863015;29;20703;-63
2024/03/06 12:27:03;;;;;;;0.50;0.50;;;8.80;99.90;;;;;;4868288;29;20217;-62
2024/03/06 12:29:31;;;;;;;0.40;0.40;;;8.70;99.90;;;;;;4875157;29;20525;-62
2024/03/06 12:32:02;;;;;;;0.55;0.55;;;8.70;99.90;;;;;;4860304;29;20647;-62
2024/03/06 12:34:29;;;;;;;1.00;0.63;;;8.60;99.90;;;;;;4896631;29;20221;-65
2024/03/06 12:36:56;;;;;;;0.30;0.30;;;8.60;99.90;;;;;;4887691;29;20213;-62
2024/03/06 12:39:23;;;;;;;0.40;0.40;;;8.60;99.90;;;;;;4854703;29;20671;-62
2024/03/06 12:41:52;;;;;;;0.30;0.30;;;8.60;99.90;;;;;;4862177;29;20417;-64
2024/03/06 12:44:19;;;;;;;0.30;0.30;;;8.50;99.90;;;;;;4869710;29;20168;-61
2024/03/06 12:46:45;;;;;;;0.30;0.30;;;8.60;99.90;;;;;;4877441;29;20204;-61
2024/03/06 12:49:11;;;;;;;0.57;0.57;;;8.60;99.90;;;;;;4884192;29;20638;-61
2024/03/06 12:51:36;;;;;;;0.50;0.50;;;8.70;99.90;;;;;;4875878;29;20255;-61
2024/03/06 12:54:03;;;;;;;0.50;0.50;;;8.70;99.90;;;;;;4888099;29;20194;-62
2024/03/06 12:56:29;;;;;;;0.40;0.40;;;8.70;99.90;;;;;;4880491;29;20954;-62
2024/03/06 12:58:54;;;;;;;0.57;0.57;;;8.70;99.90;;;;;;4892085;29;20215;-61
2024/03/06 13:01:20;;;;;;;0.40;0.40;;;8.70;99.90;;;;;;4885862;29;20180;-61
2024/03/06 13:03:46;;;;;;;0.97;0.50;;;8.70;99.90;;;;;;4899047;29;20187;-61
2024/03/06 13:06:12;;;;;;;0.30;0.30;;;8.70;99.90;;;;;;4888436;29;20634;-61
2024/03/06 13:08:37;;;;;;;0.30;0.30;;;8.80;99.90;;;;;;4880732;29;20458;-62
2024/03/06 13:11:03;;;;;;;0.47;0.47;;;8.80;99.90;;;;;;4880988;29;20190;-61
2024/03/06 13:13:29;;;;;;;0.37;0.37;;;8.70;99.90;;;;;;4887774;29;20581;-62
2024/03/06 13:15:56;;;;;;;0.30;0.30;;;8.70;99.90;;;;;;4899305;29;20436;-61
2024/03/06 13:18:21;;;;;;;0.43;0.43;;;8.70;99.90;;;;;;4897518;29;20246;-61
2024/03/06 13:20:47;;;;;;;0.50;0.50;;;8.70;99.90;;;;;;4899734;29;20617;-62
2024/03/06 13:23:13;;;;;;;0.40;0.40;;;8.60;99.90;;;;;;4881963;29;20277;-63
2024/03/06 13:25:39;;;;;;;0.47;0.47;;;8.60;99.90;;;;;;4898945;29;20198;-62
2024/03/06 13:28:05;;;;;;;0.38;0.38;;;8.60;99.90;;;;;;4899412;29;20274;-62
2024/03/06 13:30:31;;;;;;;0.63;0.63;;;8.60;99.90;;;;;;4899344;29;20190;-61
2024/03/06 13:32:57;;;;;;;0.30;0.30;;;8.60;99.90;;;;;;4899121;29;21050;-62
2024/03/06 13:35:23;;;;;;;0.60;0.60;;;8.60;99.90;;;;;;4898649;29;20270;-61
2024/03/06 13:37:51;;;;;;;0.40;0.40;;;8.60;99.90;;;;;;4866387;29;20638;-61
2024/03/06 13:40:17;;;;;;;0.40;0.40;;;8.50;99.90;;;;;;4899098;29;20178;-61
2024/03/06 13:42:43;;;;;;;0.30;0.30;;;8.50;99.90;;;;;;4898236;29;20183;-61
2024/03/06 13:45:11;;;;;;;0.30;0.30;;;8.50;99.90;;;;;;4898869;29;20234;-61
2024/03/06 13:47:40;;;;;;;0.40;0.40;;;8.50;99.90;;;;;;4898940;29;20230;-61
2024/03/06 13:50:14;;;;;;;0.40;0.40;;;8.50;99.90;;;;;;4881371;29;20690;-62
2024/03/06 13:52:40;;;;;;;1.48;1.48;;;8.50;99.90;;;;;;4896347;29;20183;-63
2024/03/06 13:55:07;;;;;;;0.30;0.30;;;8.50;99.90;;;;;;4897465;29;20207;-62
2024/03/06 13:57:34;;;;;;;0.50;0.50;;;8.50;99.90;;;;;;4898617;29;20749;-63
2024/03/06 14:00:12;;;;;;;1.60;0.80;;;8.50;99.90;;;;;;4896794;29;20179;-64
2024/03/06 14:02:41;;;;;;;0.50;0.50;;;8.50;99.90;;;;;;4886556;29;20259;-62
2024/03/06 14:05:07;;;;;;;0.40;0.40;;;8.40;99.90;;;;;;4868324;29;20189;-64
2024/03/06 14:07:34;;;;;;;0.40;0.40;;;8.50;99.90;;;;;;4859297;29;20511;-64
2024/03/06 14:09:59;;;;;;;0.30;0.30;;;8.40;99.90;;;;;;4875003;29;20216;-62
2024/03/06 14:12:25;;;;;;;0.40;0.40;;;8.40;99.90;;;;;;4877882;29;20207;-64
2024/03/06 14:14:51;;;;;;;0.30;0.30;;;8.40;99.90;;;;;;4894282;29;20270;-62
2024/03/06 14:17:16;;;;;;;0.30;0.30;;;8.40;99.90;;;;;;4879693;29;20194;-64
2024/03/06 14:19:42;;;;;;;0.47;0.47;;;8.30;99.90;;;;;;4874553;29;20202;-65
2024/03/06 14:22:09;;;;;;;0.30;0.30;;;8.30;99.90;;;;;;4879262;29;20241;-62
2024/03/06 14:24:35;;;;;;;0.50;0.50;;;8.30;99.90;;;;;;4879723;29;20650;-69
2024/03/06 14:27:02;;;;;;;0.38;0.38;;;8.30;99.90;;;;;;4880063;29;20273;-62
2024/03/06 14:29:28;;;;;;;0.30;0.30;;;8.30;99.90;;;;;;4879677;29;20665;-61
2024/03/06 14:31:54;;;;;;;0.50;0.50;;;8.30;99.90;;;;;;4880098;29;20175;-62
2024/03/06 14:34:20;;;;;;;0.30;0.30;;;8.20;99.90;;;;;;4879839;29;20714;-61
2024/03/06 14:36:46;;;;;;;0.50;0.50;;;8.30;99.90;;;;;;4879556;29;20511;-63
2024/03/06 14:39:13;;;;;;;0.57;0.57;;;8.20;99.90;;;;;;4879836;29;20484;-62
2024/03/06 14:41:39;;;;;;;0.55;0.55;;;8.20;99.90;;;;;;4879523;29;20459;-61
2024/03/06 14:44:04;;;;;;;0.50;0.50;;;8.20;99.90;;;;;;4878730;29;20211;-61
2024/03/06 14:46:31;;;;;;;0.60;0.60;;;8.30;99.90;;;;;;4885760;29;20559;-61
2024/03/06 14:48:56;;;;;;;0.40;0.40;;;8.30;99.90;;;;;;4897449;29;20175;-63
2024/03/06 14:51:22;;;;;;;0.43;0.43;;;8.30;99.90;;;;;;4897159;29;20534;-63
2024/03/06 14:53:48;;;;;;;0.40;0.40;;;8.30;99.90;;;;;;4897140;29;20645;-62
2024/03/06 14:56:14;;;;;;;0.40;0.40;;;8.30;99.90;;;;;;4896882;29;20194;-64
2024/03/06 14:58:39;;;;;;;0.50;0.50;;;8.30;99.90;;;;;;4896973;29;20701;-63
2024/03/06 15:01:05;;;;;;;0.30;0.30;;;8.20;99.90;;;;;;4880416;29;20509;-63
2024/03/06 15:03:31;;;;;;;0.47;0.47;;;8.20;99.90;;;;;;4897410;29;20262;-62
2024/03/06 15:05:57;;;;;;;0.40;0.40;;;8.30;99.90;;;;;;4897855;29;20587;-62
2024/03/06 15:08:23;;;;;;;0.97;0.97;;;8.30;99.90;;;;;;4897937;29;20470;-63
2024/03/06 15:10:51;;;;;;;0.30;0.30;;;8.40;99.90;;;;;;4898335;29;20594;-62
2024/03/06 15:13:18;;;;;;;0.30;0.30;;;8.40;99.90;;;;;;4898109;29;20207;-63
2024/03/06 15:15:44;;;;;;;0.30;0.30;;;8.40;99.90;;;;;;4881288;29;20198;-62
2024/03/06 15:18:10;;;;;;;2.20;1.30;;;8.40;99.90;;;;;;4897725;29;20195;-62
2024/03/06 15:20:36;;;;;;;0.40;0.40;;;8.40;99.90;;;;;;4897906;29;20175;-62
2024/03/06 15:23:02;;;;;;;0.40;0.40;;;8.40;99.90;;;;;;4898188;29;20194;-62
2024/03/06 15:25:28;;;;;;;0.60;0.60;;;8.40;99.90;;;;;;4897706;29;20171;-61
2024/03/06 15:27:54;;;;;;;0.50;0.50;;;8.30;99.90;;;;;;4898102;29;20247;-62
2024/03/06 15:30:20;;;;;;;0.30;0.30;;;8.30;99.90;;;;;;4897905;29;20183;-63
2024/03/06 15:32:46;;;;;;;0.30;0.30;;;8.30;99.90;;;;;;4898021;29;20171;-62
2024/03/06 15:35:12;;;;;;;0.30;0.30;;;8.30;99.90;;;;;;4897652;29;20235;-62
2024/03/06 15:37:38;;;;;;;0.60;0.60;;;8.30;99.90;;;;;;4898734;29;20187;-63
2024/03/06 15:40:06;;;;;;;0.47;0.47;;;8.30;99.90;;;;;;4897946;29;20179;-62
2024/03/06 15:42:32;;;;;;;0.70;0.70;;;8.30;99.90;;;;;;4881413;29;20502;-62
2024/03/06 15:44:57;;;;;;;0.30;0.30;;;8.30;99.90;;;;;;4897560;29;20178;-62
2024/03/06 15:47:23;;;;;;;0.40;0.40;;;8.20;99.90;;;;;;4897703;29;20312;-61
2024/03/06 15:49:49;;;;;;;0.30;0.30;;;8.20;99.90;;;;;;4880881;29;20183;-62
2024/03/06 15:52:15;;;;;;;0.40;0.40;;;8.20;99.90;;;;;;4897805;29;20207;-62
2024/03/06 15:54:41;;;;;;;0.40;0.40;;;8.20;99.90;;;;;;4880708;29;20179;-62
2024/03/06 15:57:07;;;;;;;0.45;0.45;;;8.20;99.90;;;;;;4897701;29;20198;-62
2024/03/06 15:59:33;;;;;;;0.40;0.40;;;8.20;99.90;;;;;;4880615;29;20227;-62
2024/03/06 16:01:59;;;;;;;1.38;1.25;;;8.20;99.90;;;;;;4897692;29;20186;-62
2024/03/06 16:04:25;;;;;;;0.50;0.50;;;8.20;99.90;;;;;;4897867;29;20178;-62
2024/03/06 16:06:51;;;;;;;0.38;0.38;;;8.20;99.90;;;;;;4901533;29;20199;-62
2024/03/06 16:09:18;;;;;;;0.83;0.83;;;8.20;99.90;;;;;;4902011;29;20209;-62
2024/03/06 16:11:44;;;;;;;0.32;0.32;;;8.20;99.90;;;;;;4901806;29;20407;-61
2024/03/06 16:14:10;;;;;;;0.30;0.30;;;8.20;99.90;;;;;;4901338;29;20511;-63
2024/03/06 16:16:36;;;;;;;0.30;0.30;;;8.20;99.90;;;;;;4900932;29;20207;-62
2024/03/06 16:19:02;;;;;;;0.70;0.70;;;8.20;99.90;;;;;;4901918;29;20613;-63
2024/03/06 16:21:28;;;;;;;0.30;0.30;;;8.20;99.90;;;;;;4901913;29;20178;-63
2024/03/06 16:23:53;;;;;;;0.40;0.40;;;8.20;99.90;;;;;;4884431;29;20318;-61
2024/03/06 16:26:19;;;;;;;1.53;0.80;;;8.20;99.90;;;;;;4901418;29;20230;-63
2024/03/06 16:28:45;;;;;;;0.40;0.40;;;8.20;99.90;;;;;;4901847;29;20175;-63
2024/03/06 16:31:12;;;;;;;0.43;0.43;;;8.20;99.90;;;;;;4901003;29;20186;-63
2024/03/06 16:33:38;;;;;;;0.85;0.85;;;8.20;99.90;;;;;;4900970;29;20616;-62
2024/03/06 16:36:04;;;;;;;0.40;0.40;;;8.20;99.90;;;;;;4900932;29;20237;-62
2024/03/06 16:38:30;;;;;;;0.50;0.50;;;8.10;99.90;;;;;;4900866;29;20222;-62
2024/03/06 16:40:57;;;;;;;0.50;0.50;;;8.10;99.90;;;;;;4884157;29;20389;-62
2024/03/06 16:43:22;;;;;;;0.40;0.40;;;8.10;99.90;;;;;;4901230;29;20186;-61
2024/03/06 16:45:48;;;;;;;0.47;0.47;;;8.10;99.90;;;;;;4883742;29;20653;-61
2024/03/06 16:48:13;;;;;;;0.40;0.40;;;8.10;99.90;;;;;;4900919;29;20212;-61
2024/03/06 16:50:39;;;;;;;0.33;0.33;;;8.10;99.90;;;;;;4900980;29;20179;-62
2024/03/06 16:53:06;;;;;;;0.40;0.40;;;8.10;99.90;;;;;;4900700;29;20171;-62
2024/03/06 16:55:32;;;;;;;0.30;0.30;;;8.10;99.90;;;;;;4900516;29;20714;-62
2024/03/06 16:57:58;;;;;;;1.20;1.20;;;8.10;99.90;;;;;;4900458;29;20553;-62
2024/03/06 17:00:24;;;;;;;0.30;0.30;;;8.10;99.90;;;;;;4900574;29;20181;-63
2024/03/06 17:02:50;;;;;;;1.23;0.90;;;8.10;99.90;;;;;;4900562;29;20175;-62
2024/03/06 17:05:16;;;;;;;0.38;0.38;;;8.10;99.90;;;;;;4900146;29;20393;-62
2024/03/06 17:07:42;;;;;;;0.30;0.30;;;8.10;99.90;;;;;;4900307;29;20269;-62
2024/03/06 17:10:12;;;;;;;0.30;0.30;;;8.10;99.90;;;;;;4900689;29;20181;-63
2024/03/06 17:12:38;;;;;;;0.30;0.30;;;8.10;99.90;;;;;;4900600;29;20680;-63
2024/03/06 17:15:04;;;;;;;0.30;0.30;;;8.10;99.90;;;;;;4883192;29;20189;-64
2024/03/06 17:17:29;;;;;;;0.40;0.40;;;8.10;99.90;;;;;;4898890;29;20231;-62
2024/03/06 17:19:55;;;;;;;1.90;0.90;;;8.10;99.90;;;;;;4899641;29;20574;-61
2024/03/06 17:22:21;;;;;;;0.30;0.30;;;8.10;99.90;;;;;;4899827;29;20523;-62
2024/03/06 17:24:46;;;;;;;0.40;0.40;;;8.10;99.90;;;;;;4899376;29;20242;-62
2024/03/06 17:27:12;;;;;;;0.30;0.30;;;8.10;99.90;;;;;;4899415;29;20258;-61
2024/03/06 17:29:37;;;;;;;0.40;0.40;;;8.20;99.90;;;;;;4900177;29;20183;-62
2024/03/06 17:32:03;;;;;;;0.60;0.60;;;8.10;99.90;;;;;;4882532;29;20179;-63
2024/03/06 17:34:31;;;;;;;0.40;0.40;;;8.20;99.90;;;;;;4899350;29;20254;-62
2024/03/06 17:36:56;;;;;;;1.60;1.50;;;8.20;99.90;;;;;;4899566;29;20226;-62
2024/03/06 17:39:25;;;;;;;0.57;0.57;;;8.20;99.90;;;;;;4899777;29;20241;-63
2024/03/06 17:41:52;;;;;;;1.02;1.02;;;8.20;99.90;;;;;;4899387;29;20186;-63
2024/03/06 17:44:17;;;;;;;0.40;0.40;;;8.20;99.90;;;;;;4899975;29;20511;-63
2024/03/06 17:46:43;;;;;;;0.40;0.40;;;8.10;99.90;;;;;;4899654;29;20198;-64
2024/03/06 17:49:10;;;;;;;0.93;0.93;;;8.10;99.90;;;;;;4902420;29;20207;-62
2024/03/06 17:51:36;;;;;;;0.30;0.30;;;8.10;99.90;;;;;;4884844;29;20190;-60
2024/03/06 17:54:02;;;;;;;0.80;0.80;;;8.10;99.90;;;;;;4902842;29;20670;-61
2024/03/06 17:56:28;;;;;;;0.43;0.43;;;8.00;99.90;;;;;;4905101;29;20207;-63
2024/03/06 17:58:54;;;;;;;0.85;0.85;;;8.00;99.90;;;;;;4905970;29;20262;-61
2024/03/06 18:01:23;;;;;;;0.33;0.33;;;8.00;99.90;;;;;;4905697;29;20178;-62